createdAt,value
2018-12-12T00:00:43.682Z,1008.15
2018-12-12T00:01:43.688Z,1008.10
2018-12-12T00:02:43.702Z,1008.14
2018-12-12T00:03:43.719Z,1008.13
2018-12-12T00:04:43.730Z,1008.11
2018-12-12T00:05:43.750Z,1008.10
2018-12-12T00:06:43.765Z,1008.10
2018-12-12T00:07:43.778Z,1008.15
2018-12-12T00:08:43.798Z,1008.14
2018-12-12T00:09:43.813Z,1008.13
2018-12-12T00:10:43.828Z,1008.09
2018-12-12T00:11:43.843Z,1008.12
2018-12-12T00:12:43.854Z,1008.12
2018-12-12T00:13:43.877Z,1008.08
2018-12-12T00:14:43.886Z,1008.12
2018-12-12T00:15:43.907Z,1008.14
2018-12-12T00:16:43.926Z,1008.10
2018-12-12T00:17:43.941Z,1008.12
2018-12-12T00:18:43.964Z,1008.10
2018-12-12T00:19:43.978Z,1008.12
2018-12-12T00:20:43.998Z,1008.14
2018-12-12T00:21:44.002Z,1008.19
2018-12-12T00:22:44.026Z,1008.17
2018-12-12T00:23:44.033Z,1008.19
2018-12-12T00:24:44.060Z,1008.17
2018-12-12T00:25:44.069Z,1008.18
2018-12-12T00:26:44.083Z,1008.18
2018-12-12T00:27:44.091Z,1008.13
2018-12-12T00:28:44.113Z,1008.17
2018-12-12T00:29:44.141Z,1008.15
2018-12-12T00:30:44.145Z,1008.15
2018-12-12T00:31:44.160Z,1008.19
2018-12-12T00:32:44.174Z,1008.16
2018-12-12T00:33:44.216Z,1008.18
2018-12-12T00:34:44.223Z,1008.16
2018-12-12T00:35:44.236Z,1008.20
2018-12-12T00:36:44.239Z,1008.20
2018-12-12T00:37:44.262Z,1008.17
2018-12-12T00:38:44.275Z,1008.16
2018-12-12T00:39:44.315Z,1008.17
2018-12-12T00:40:44.303Z,1008.19
2018-12-12T00:41:44.320Z,1008.20
2018-12-12T00:42:44.334Z,1008.18
2018-12-12T00:43:44.345Z,1008.17
2018-12-12T00:44:44.364Z,1008.18
2018-12-12T00:45:44.382Z,1008.22
2018-12-12T00:46:44.401Z,1008.20
2018-12-12T00:47:44.417Z,1008.16
2018-12-12T00:48:44.441Z,1008.19
2018-12-12T00:49:44.544Z,1008.23
2018-12-12T00:50:44.459Z,1008.23
2018-12-12T00:51:44.475Z,1008.21
2018-12-12T00:52:44.499Z,1008.18
2018-12-12T00:53:44.509Z,1008.19
2018-12-12T00:54:44.528Z,1008.17
2018-12-12T00:55:44.544Z,1008.17
2018-12-12T00:56:44.551Z,1008.19
2018-12-12T00:57:44.566Z,1008.18
2018-12-12T00:58:44.601Z,1008.18
2018-12-12T00:59:44.600Z,1008.18
2018-12-12T01:00:44.623Z,1008.14
2018-12-12T01:01:44.651Z,1008.14
2018-12-12T01:02:44.657Z,1008.14
2018-12-12T01:03:44.659Z,1008.12
2018-12-12T01:04:44.682Z,1008.11
2018-12-12T01:05:44.692Z,1008.11
2018-12-12T01:06:44.711Z,1008.17
2018-12-12T01:07:44.722Z,1008.14
2018-12-12T01:08:44.742Z,1008.17
2018-12-12T01:09:44.757Z,1008.21
2018-12-12T01:10:44.770Z,1008.23
2018-12-12T01:11:44.784Z,1008.23
2018-12-12T01:12:44.799Z,1008.24
2018-12-12T01:13:44.818Z,1008.23
2018-12-12T01:14:44.839Z,1008.26
2018-12-12T01:15:44.847Z,1008.24
2018-12-12T01:16:44.864Z,1008.27
2018-12-12T01:17:44.887Z,1008.29
2018-12-12T01:18:44.900Z,1008.31
2018-12-12T01:19:44.929Z,1008.33
2018-12-12T01:20:44.928Z,1008.34
2018-12-12T01:21:44.941Z,1008.32
2018-12-12T01:22:44.955Z,1008.36
2018-12-12T01:23:44.981Z,1008.36
2018-12-12T01:24:45.002Z,1008.34
2018-12-12T01:25:45.082Z,1008.44
2018-12-12T01:26:45.064Z,1008.42
2018-12-12T01:27:45.037Z,1008.41
2018-12-12T01:28:45.051Z,1008.42
2018-12-12T01:29:45.069Z,1008.38
2018-12-12T01:30:45.085Z,1008.43
2018-12-12T01:31:45.101Z,1008.45
2018-12-12T01:32:45.118Z,1008.44
2018-12-12T01:33:45.134Z,1008.47
2018-12-12T01:34:45.153Z,1008.47
2018-12-12T01:35:45.163Z,1008.48
2018-12-12T01:36:45.183Z,1008.47
2018-12-12T01:37:45.194Z,1008.50
2018-12-12T01:38:45.211Z,1008.51
2018-12-12T01:39:45.230Z,1008.52
2018-12-12T01:40:45.249Z,1008.51
2018-12-12T01:41:45.264Z,1008.53
2018-12-12T01:42:45.336Z,1008.53
2018-12-12T01:43:45.287Z,1008.52
2018-12-12T01:44:45.307Z,1008.52
2018-12-12T01:45:45.318Z,1008.51
2018-12-12T01:46:45.334Z,1008.51
2018-12-12T01:47:45.356Z,1008.50
2018-12-12T01:48:45.367Z,1008.47
2018-12-12T01:49:45.380Z,1008.47
2018-12-12T01:50:45.394Z,1008.51
2018-12-12T01:51:45.411Z,1008.49
2018-12-12T01:52:45.433Z,1008.48
2018-12-12T01:53:45.442Z,1008.44
2018-12-12T01:54:45.459Z,1008.45
2018-12-12T01:55:45.478Z,1008.48
2018-12-12T01:56:45.491Z,1008.46
2018-12-12T01:57:45.509Z,1008.45
2018-12-12T01:58:45.538Z,1008.43
2018-12-12T01:59:45.541Z,1008.42
2018-12-12T02:00:45.557Z,1008.44
2018-12-12T02:01:45.572Z,1008.46
2018-12-12T02:02:45.591Z,1008.47
2018-12-12T02:03:45.599Z,1008.47
2018-12-12T02:04:45.620Z,1008.48
2018-12-12T02:05:45.633Z,1008.50
2018-12-12T02:06:45.668Z,1008.48
2018-12-12T02:07:45.666Z,1008.49
2018-12-12T02:08:46.272Z,1008.52
2018-12-12T02:09:45.696Z,1008.50
2018-12-12T02:10:45.711Z,1008.53
2018-12-12T02:11:45.761Z,1008.53
2018-12-12T02:12:45.748Z,1008.52
2018-12-12T02:13:45.759Z,1008.53
2018-12-12T02:14:45.781Z,1008.55
2018-12-12T02:15:45.792Z,1008.54
2018-12-12T02:16:45.826Z,1008.57
2018-12-12T02:17:45.873Z,1008.54
2018-12-12T02:18:45.852Z,1008.54
2018-12-12T02:19:45.859Z,1008.55
2018-12-12T02:20:45.907Z,1008.57
2018-12-12T02:21:45.905Z,1008.60
2018-12-12T02:22:45.905Z,1008.63
2018-12-12T02:23:45.925Z,1008.63
2018-12-12T02:24:45.968Z,1008.65
2018-12-12T02:25:45.953Z,1008.64
2018-12-12T02:26:45.967Z,1008.69
2018-12-12T02:27:45.989Z,1008.70
2018-12-12T02:28:45.999Z,1008.71
2018-12-12T02:29:46.022Z,1008.68
2018-12-12T02:30:46.038Z,1008.74
2018-12-12T02:31:46.055Z,1008.74
2018-12-12T02:32:46.059Z,1008.75
2018-12-12T02:33:46.081Z,1008.74
2018-12-12T02:34:46.119Z,1008.72
2018-12-12T02:35:46.118Z,1008.69
2018-12-12T02:36:46.137Z,1008.74
2018-12-12T02:37:46.141Z,1008.70
2018-12-12T02:38:46.154Z,1008.70
2018-12-12T02:39:46.169Z,1008.68
2018-12-12T02:40:46.199Z,1008.71
2018-12-12T02:41:46.206Z,1008.67
2018-12-12T02:42:46.218Z,1008.70
2018-12-12T02:43:46.251Z,1008.65
2018-12-12T02:44:46.254Z,1008.66
2018-12-12T02:45:46.279Z,1008.64
2018-12-12T02:46:46.313Z,1008.62
2018-12-12T02:47:46.303Z,1008.65
2018-12-12T02:48:46.317Z,1008.66
2018-12-12T02:49:46.337Z,1008.67
2018-12-12T02:50:46.357Z,1008.67
2018-12-12T02:51:46.365Z,1008.67
2018-12-12T02:52:46.383Z,1008.65
2018-12-12T02:53:46.395Z,1008.68
2018-12-12T02:54:46.414Z,1008.73
2018-12-12T02:55:46.449Z,1008.72
2018-12-12T02:56:46.444Z,1008.72
2018-12-12T02:57:46.497Z,1008.73
2018-12-12T02:58:46.476Z,1008.72
2018-12-12T02:59:46.489Z,1008.70
2018-12-12T03:00:46.543Z,1008.73
2018-12-12T03:01:46.527Z,1008.69
2018-12-12T03:02:46.538Z,1008.70
2018-12-12T03:03:46.568Z,1008.75
2018-12-12T03:04:46.582Z,1008.78
2018-12-12T03:05:46.593Z,1008.77
2018-12-12T03:06:46.599Z,1008.79
2018-12-12T03:07:46.618Z,1008.79
2018-12-12T03:08:46.638Z,1008.79
2018-12-12T03:09:46.646Z,1008.77
2018-12-12T03:10:46.669Z,1008.81
2018-12-12T03:11:46.695Z,1008.78
2018-12-12T03:12:46.702Z,1008.84
2018-12-12T03:13:46.714Z,1008.86
2018-12-12T03:14:46.737Z,1008.84
2018-12-12T03:15:46.742Z,1008.87
2018-12-12T03:16:46.765Z,1008.84
2018-12-12T03:17:46.782Z,1008.85
2018-12-12T03:18:46.803Z,1008.85
2018-12-12T03:19:46.817Z,1008.82
2018-12-12T03:20:46.818Z,1008.86
2018-12-12T03:21:46.836Z,1008.91
2018-12-12T03:22:46.878Z,1008.86
2018-12-12T03:23:46.876Z,1008.90
2018-12-12T03:24:46.882Z,1008.90
2018-12-12T03:25:46.918Z,1008.89
2018-12-12T03:26:46.916Z,1008.86
2018-12-12T03:27:47.079Z,1008.87
2018-12-12T03:28:46.948Z,1008.89
2018-12-12T03:29:46.971Z,1008.85
2018-12-12T03:30:46.985Z,1008.90
2018-12-12T03:31:47.004Z,1008.89
2018-12-12T03:32:47.018Z,1008.90
2018-12-12T03:33:47.043Z,1008.89
2018-12-12T03:34:47.046Z,1008.91
2018-12-12T03:35:47.058Z,1008.93
2018-12-12T03:36:47.084Z,1008.88
2018-12-12T03:37:47.102Z,1008.93
2018-12-12T03:38:47.108Z,1008.94
2018-12-12T03:39:47.122Z,1008.91
2018-12-12T03:40:47.135Z,1008.91
2018-12-12T03:41:47.158Z,1008.89
2018-12-12T03:42:47.168Z,1008.91
2018-12-12T03:43:47.186Z,1008.90
2018-12-12T03:44:47.199Z,1008.90
2018-12-12T03:45:47.224Z,1008.90
2018-12-12T03:46:47.242Z,1008.89
2018-12-12T03:47:47.250Z,1008.85
2018-12-12T03:48:47.266Z,1008.84
2018-12-12T03:49:47.288Z,1008.86
2018-12-12T03:50:47.310Z,1008.86
2018-12-12T03:51:47.321Z,1008.88
2018-12-12T03:52:47.336Z,1008.87
2018-12-12T03:53:47.355Z,1008.87
2018-12-12T03:54:47.408Z,1008.89
2018-12-12T03:55:47.383Z,1008.88
2018-12-12T03:56:47.401Z,1008.89
2018-12-12T03:57:47.412Z,1008.89
2018-12-12T03:58:47.438Z,1008.87
2018-12-12T03:59:47.445Z,1008.93
2018-12-12T04:00:47.474Z,1008.91
2018-12-12T04:01:47.482Z,1008.91
2018-12-12T04:02:47.490Z,1008.92
2018-12-12T04:03:47.507Z,1008.92
2018-12-12T04:04:47.521Z,1008.93
2018-12-12T04:05:47.545Z,1008.91
2018-12-12T04:06:47.561Z,1008.89
2018-12-12T04:07:47.593Z,1008.93
2018-12-12T04:08:47.595Z,1008.92
2018-12-12T04:09:47.605Z,1008.90
2018-12-12T04:10:47.620Z,1008.89
2018-12-12T04:11:47.647Z,1008.92
2018-12-12T04:12:47.653Z,1008.91
2018-12-12T04:13:47.666Z,1008.88
2018-12-12T04:14:47.688Z,1008.86
2018-12-12T04:15:47.700Z,1008.84
2018-12-12T04:16:47.718Z,1008.83
2018-12-12T04:17:47.729Z,1008.85
2018-12-12T04:18:47.750Z,1008.87
2018-12-12T04:19:47.765Z,1008.91
2018-12-12T04:20:47.776Z,1008.89
2018-12-12T04:21:47.817Z,1008.89
2018-12-12T04:22:47.811Z,1008.88
2018-12-12T04:23:47.836Z,1008.91
2018-12-12T04:24:47.838Z,1008.90
2018-12-12T04:25:47.963Z,1008.88
2018-12-12T04:26:47.874Z,1008.91
2018-12-12T04:27:47.897Z,1008.89
2018-12-12T04:28:47.909Z,1008.87
2018-12-12T04:29:47.923Z,1008.90
2018-12-12T04:30:47.943Z,1008.90
2018-12-12T04:31:47.953Z,1008.94
2018-12-12T04:32:47.970Z,1008.96
2018-12-12T04:33:48.053Z,1008.99
2018-12-12T04:34:48.004Z,1008.98
2018-12-12T04:35:48.017Z,1008.94
2018-12-12T04:36:48.031Z,1008.99
2018-12-12T04:37:48.054Z,1008.98
2018-12-12T04:38:48.137Z,1008.99
2018-12-12T04:39:48.085Z,1008.96
2018-12-12T04:40:48.101Z,1008.95
2018-12-12T04:41:48.136Z,1008.96
2018-12-12T04:42:48.127Z,1008.99
2018-12-12T04:43:48.142Z,1008.95
2018-12-12T04:44:48.159Z,1008.99
2018-12-12T04:45:48.179Z,1009.01
2018-12-12T04:46:48.193Z,1009.02
2018-12-12T04:47:48.221Z,1009.04
2018-12-12T04:48:48.223Z,1009.01
2018-12-12T04:49:48.249Z,1009.06
2018-12-12T04:50:48.258Z,1009.10
2018-12-12T04:51:48.279Z,1009.10
2018-12-12T04:52:48.293Z,1009.08
2018-12-12T04:53:48.309Z,1009.08
2018-12-12T04:54:48.331Z,1009.09
2018-12-12T04:55:48.334Z,1009.10
2018-12-12T04:56:48.351Z,1009.10
2018-12-12T04:57:48.369Z,1009.09
2018-12-12T04:58:48.382Z,1009.14
2018-12-12T04:59:48.395Z,1009.13
2018-12-12T05:00:48.424Z,1009.11
2018-12-12T05:01:48.436Z,1009.11
2018-12-12T05:02:48.456Z,1009.09
2018-12-12T05:03:48.462Z,1009.08
2018-12-12T05:04:48.501Z,1009.07
2018-12-12T05:05:48.496Z,1009.03
2018-12-12T05:06:48.520Z,1009.06
2018-12-12T05:07:48.528Z,1009.07
2018-12-12T05:08:48.558Z,1009.07
2018-12-12T05:09:48.557Z,1009.02
2018-12-12T05:10:48.572Z,1009.08
2018-12-12T05:11:48.589Z,1009.07
2018-12-12T05:12:48.611Z,1009.09
2018-12-12T05:13:48.622Z,1009.10
2018-12-12T05:14:48.742Z,1009.09
2018-12-12T05:15:48.651Z,1009.13
2018-12-12T05:16:48.676Z,1009.12
2018-12-12T05:17:48.687Z,1009.15
2018-12-12T05:18:48.704Z,1009.17
2018-12-12T05:19:48.722Z,1009.17
2018-12-12T05:20:48.737Z,1009.17
2018-12-12T05:21:48.752Z,1009.18
2018-12-12T05:22:48.766Z,1009.23
2018-12-12T05:23:48.778Z,1009.23
2018-12-12T05:24:48.798Z,1009.23
2018-12-12T05:25:48.811Z,1009.25
2018-12-12T05:26:48.837Z,1009.23
2018-12-12T05:27:48.932Z,1009.27
2018-12-12T05:28:48.860Z,1009.30
2018-12-12T05:29:48.874Z,1009.29
2018-12-12T05:30:48.891Z,1009.29
2018-12-12T05:31:48.911Z,1009.33
2018-12-12T05:32:48.924Z,1009.31
2018-12-12T05:33:48.941Z,1009.34
2018-12-12T05:34:48.957Z,1009.32
2018-12-12T05:35:48.969Z,1009.32
2018-12-12T05:36:48.988Z,1009.31
2018-12-12T05:37:51.872Z,1009.35
2018-12-12T05:38:49.016Z,1009.36
2018-12-12T05:39:49.070Z,1009.35
2018-12-12T05:40:49.105Z,1009.37
2018-12-12T05:41:49.071Z,1009.39
2018-12-12T05:42:49.095Z,1009.39
2018-12-12T05:43:49.098Z,1009.38
2018-12-12T05:44:49.120Z,1009.41
2018-12-12T05:45:49.136Z,1009.41
2018-12-12T05:46:49.162Z,1009.40
2018-12-12T05:47:49.163Z,1009.42
2018-12-12T05:48:49.176Z,1009.43
2018-12-12T05:49:49.210Z,1009.45
2018-12-12T05:50:49.209Z,1009.46
2018-12-12T05:51:49.224Z,1009.42
2018-12-12T05:52:49.242Z,1009.46
2018-12-12T05:53:49.258Z,1009.44
2018-12-12T05:54:49.274Z,1009.47
2018-12-12T05:55:49.290Z,1009.46
2018-12-12T05:56:52.396Z,1009.48
2018-12-12T05:57:49.321Z,1009.50
2018-12-12T05:58:49.334Z,1009.50
2018-12-12T05:59:49.348Z,1009.52
2018-12-12T06:00:49.369Z,1009.52
2018-12-12T06:01:49.381Z,1009.53
2018-12-12T06:02:49.413Z,1009.55
2018-12-12T06:03:49.577Z,1009.48
2018-12-12T06:04:49.441Z,1009.46
2018-12-12T06:05:49.461Z,1009.49
2018-12-12T06:06:49.462Z,1009.51
2018-12-12T06:07:49.490Z,1009.49
2018-12-12T06:08:49.528Z,1009.49
2018-12-12T06:09:49.510Z,1009.51
2018-12-12T06:10:49.618Z,1009.51
2018-12-12T06:11:49.549Z,1009.51
2018-12-12T06:12:49.578Z,1009.53
2018-12-12T06:13:49.621Z,1009.53
2018-12-12T06:14:49.609Z,1009.55
2018-12-12T06:15:49.625Z,1009.55
2018-12-12T06:16:49.623Z,1009.57
2018-12-12T06:17:49.646Z,1009.57
2018-12-12T06:18:49.660Z,1009.58
2018-12-12T06:19:49.702Z,1009.54
2018-12-12T06:20:49.684Z,1009.57
2018-12-12T06:21:49.699Z,1009.58
2018-12-12T06:22:49.717Z,1009.58
2018-12-12T06:23:49.790Z,1009.60
2018-12-12T06:24:49.749Z,1009.62
2018-12-12T06:25:49.767Z,1009.62
2018-12-12T06:26:49.789Z,1009.67
2018-12-12T06:27:49.798Z,1009.62
2018-12-12T06:28:49.814Z,1009.66
2018-12-12T06:29:49.835Z,1009.66
2018-12-12T06:30:49.845Z,1009.69
2018-12-12T06:31:49.854Z,1009.71
2018-12-12T06:32:49.880Z,1009.73
2018-12-12T06:33:49.885Z,1009.66
2018-12-12T06:34:49.905Z,1009.66
2018-12-12T06:35:49.921Z,1009.69
2018-12-12T06:36:49.937Z,1009.70
2018-12-12T06:37:49.956Z,1009.67
2018-12-12T06:38:49.974Z,1009.74
2018-12-12T06:39:50.093Z,1009.73
2018-12-12T06:40:50.002Z,1009.74
2018-12-12T06:41:50.014Z,1009.72
2018-12-12T06:42:50.039Z,1009.73
2018-12-12T06:43:50.048Z,1009.76
2018-12-12T06:44:50.063Z,1009.75
2018-12-12T06:45:50.078Z,1009.76
2018-12-12T06:46:50.108Z,1009.79
2018-12-12T06:47:50.120Z,1009.80
2018-12-12T06:48:50.130Z,1009.85
2018-12-12T06:49:50.270Z,1009.85
2018-12-12T06:50:50.159Z,1009.84
2018-12-12T06:51:50.177Z,1009.82
2018-12-12T06:52:50.196Z,1009.80
2018-12-12T06:53:50.211Z,1009.82
2018-12-12T06:54:50.218Z,1009.79
2018-12-12T06:55:50.235Z,1009.81
2018-12-12T06:56:50.255Z,1009.81
2018-12-12T06:57:50.331Z,1009.82
2018-12-12T06:58:50.286Z,1009.86
2018-12-12T06:59:50.301Z,1009.86
2018-12-12T07:00:50.329Z,1009.88
2018-12-12T07:01:50.343Z,1009.91
2018-12-12T07:02:50.345Z,1009.93
2018-12-12T07:03:50.373Z,1009.97
2018-12-12T07:04:50.389Z,1009.98
2018-12-12T07:05:50.422Z,1009.99
2018-12-12T07:06:50.408Z,1010.01
2018-12-12T07:07:50.426Z,1010.00
2018-12-12T07:08:50.441Z,1010.03
2018-12-12T07:09:50.454Z,1010.06
2018-12-12T07:10:50.480Z,1010.03
2018-12-12T07:11:50.500Z,1009.98
2018-12-12T07:12:50.505Z,1009.99
2018-12-12T07:13:50.518Z,1010.00
2018-12-12T07:14:50.538Z,1010.04
2018-12-12T07:15:50.554Z,1009.98
2018-12-12T07:16:50.570Z,1010.04
2018-12-12T07:17:50.588Z,1010.02
2018-12-12T07:18:50.612Z,1010.09
2018-12-12T07:19:50.614Z,1010.05
2018-12-12T07:20:50.643Z,1010.09
2018-12-12T07:21:50.649Z,1010.07
2018-12-12T07:22:50.668Z,1010.10
2018-12-12T07:23:50.681Z,1010.09
2018-12-12T07:24:50.763Z,1010.07
2018-12-12T07:25:50.716Z,1010.08
2018-12-12T07:26:50.719Z,1010.04
2018-12-12T07:27:50.743Z,1010.04
2018-12-12T07:28:50.781Z,1010.04
2018-12-12T07:29:50.767Z,1010.06
2018-12-12T07:30:50.783Z,1010.06
2018-12-12T07:31:50.798Z,1010.05
2018-12-12T07:32:50.819Z,1010.10
2018-12-12T07:33:50.848Z,1010.10
2018-12-12T07:34:50.849Z,1010.09
2018-12-12T07:35:50.871Z,1010.07
2018-12-12T07:36:50.884Z,1010.08
2018-12-12T07:37:50.902Z,1010.15
2018-12-12T07:38:50.916Z,1010.15
2018-12-12T07:39:50.925Z,1010.18
2018-12-12T07:40:50.948Z,1010.17
2018-12-12T07:41:50.962Z,1010.17
2018-12-12T07:42:50.976Z,1010.17
2018-12-12T07:43:50.996Z,1010.18
2018-12-12T07:44:51.014Z,1010.19
2018-12-12T07:45:51.032Z,1010.19
2018-12-12T07:46:51.063Z,1010.21
2018-12-12T07:47:51.056Z,1010.21
2018-12-12T07:48:51.074Z,1010.25
2018-12-12T07:49:51.088Z,1010.24
2018-12-12T07:50:51.616Z,1010.23
2018-12-12T07:51:51.118Z,1010.24
2018-12-12T07:52:51.134Z,1010.25
2018-12-12T07:53:51.152Z,1010.24
2018-12-12T07:54:51.369Z,1010.28
2018-12-12T07:55:51.212Z,1010.26
2018-12-12T07:56:51.193Z,1010.25
2018-12-12T07:57:51.211Z,1010.23
2018-12-12T07:58:51.230Z,1010.27
2018-12-12T07:59:51.248Z,1010.29
2018-12-12T08:00:51.278Z,1010.27
2018-12-12T08:01:51.276Z,1010.26
2018-12-12T08:02:51.304Z,1010.29
2018-12-12T08:03:51.308Z,1010.29
2018-12-12T08:04:51.364Z,1010.30
2018-12-12T08:05:51.340Z,1010.32
2018-12-12T08:06:51.353Z,1010.28
2018-12-12T08:07:51.373Z,1010.30
2018-12-12T08:08:51.389Z,1010.32
2018-12-12T08:09:51.403Z,1010.30
2018-12-12T08:10:51.418Z,1010.28
2018-12-12T08:11:51.436Z,1010.29
2018-12-12T08:12:51.449Z,1010.29
2018-12-12T08:13:51.468Z,1010.28
2018-12-12T08:14:51.481Z,1010.28
2018-12-12T08:15:51.511Z,1010.33
2018-12-12T08:16:51.518Z,1010.32
2018-12-12T08:17:51.556Z,1010.35
2018-12-12T08:18:51.550Z,1010.30
2018-12-12T08:19:51.558Z,1010.35
2018-12-12T08:20:51.584Z,1010.34
2018-12-12T08:21:51.597Z,1010.36
2018-12-12T08:22:51.606Z,1010.36
2018-12-12T08:23:51.619Z,1010.37
2018-12-12T08:24:51.646Z,1010.39
2018-12-12T08:25:51.663Z,1010.40
2018-12-12T08:26:51.670Z,1010.41
2018-12-12T08:27:51.695Z,1010.42
2018-12-12T08:28:51.706Z,1010.44
2018-12-12T08:29:51.862Z,1010.43
2018-12-12T08:30:51.737Z,1010.44
2018-12-12T08:31:51.755Z,1010.46
2018-12-12T08:32:51.802Z,1010.50
2018-12-12T08:33:51.786Z,1010.50
2018-12-12T08:34:51.799Z,1010.57
2018-12-12T08:35:51.814Z,1010.56
2018-12-12T08:36:51.847Z,1010.58
2018-12-12T08:37:51.868Z,1010.61
2018-12-12T08:38:51.868Z,1010.58
2018-12-12T08:39:51.876Z,1010.50
2018-12-12T08:40:51.897Z,1010.55
2018-12-12T08:41:51.909Z,1010.52
2018-12-12T08:42:51.932Z,1010.55
2018-12-12T08:43:51.961Z,1010.57
2018-12-12T08:44:51.963Z,1010.57
2018-12-12T08:45:51.985Z,1010.59
2018-12-12T08:46:51.992Z,1010.61
2018-12-12T08:47:52.013Z,1010.64
2018-12-12T08:48:52.031Z,1010.63
2018-12-12T08:49:52.043Z,1010.60
2018-12-12T08:50:52.063Z,1010.65
2018-12-12T08:51:52.080Z,1010.64
2018-12-12T08:52:52.091Z,1010.67
2018-12-12T08:53:52.118Z,1010.67
2018-12-12T08:54:52.134Z,1010.67
2018-12-12T08:55:52.139Z,1010.65
2018-12-12T08:56:52.153Z,1010.70
2018-12-12T08:57:52.175Z,1010.67
2018-12-12T08:58:52.236Z,1010.70
2018-12-12T08:59:52.199Z,1010.70
2018-12-12T09:00:52.217Z,1010.71
2018-12-12T09:01:52.242Z,1010.70
2018-12-12T09:02:52.248Z,1010.71
2018-12-12T09:03:52.266Z,1010.73
2018-12-12T09:04:52.285Z,1010.73
2018-12-12T09:05:52.297Z,1010.77
2018-12-12T09:06:52.320Z,1010.78
2018-12-12T09:07:52.332Z,1010.83
2018-12-12T09:08:52.353Z,1010.79
2018-12-12T09:09:52.373Z,1010.85
2018-12-12T09:10:52.385Z,1010.83
2018-12-12T09:11:52.397Z,1010.84
2018-12-12T09:12:52.410Z,1010.83
2018-12-12T09:13:52.428Z,1010.83
2018-12-12T09:14:52.455Z,1010.80
2018-12-12T09:15:52.459Z,1010.80
2018-12-12T09:16:52.481Z,1010.80
2018-12-12T09:17:52.498Z,1010.82
2018-12-12T09:18:52.506Z,1010.79
2018-12-12T09:19:52.525Z,1010.79
2018-12-12T09:20:52.540Z,1010.84
2018-12-12T09:21:52.560Z,1010.83
2018-12-12T09:22:52.574Z,1010.91
2018-12-12T09:23:52.588Z,1010.95
2018-12-12T09:24:52.605Z,1010.95
2018-12-12T09:25:52.631Z,1010.93
2018-12-12T09:26:52.639Z,1010.92
2018-12-12T09:27:52.664Z,1010.91
2018-12-12T09:28:52.679Z,1010.93
2018-12-12T09:29:52.694Z,1010.88
2018-12-12T09:30:52.710Z,1010.93
2018-12-12T09:31:52.727Z,1010.88
2018-12-12T09:32:52.737Z,1010.89
2018-12-12T09:33:52.750Z,1010.92
2018-12-12T09:34:52.773Z,1010.91
2018-12-12T09:35:52.785Z,1010.95
2018-12-12T09:36:52.803Z,1010.98
2018-12-12T09:37:52.834Z,1011.01
2018-12-12T09:38:52.834Z,1011.01
2018-12-12T09:39:52.861Z,1010.97
2018-12-12T09:40:52.874Z,1010.97
2018-12-12T09:41:52.888Z,1010.99
2018-12-12T09:42:52.966Z,1010.94
2018-12-12T09:43:52.922Z,1010.95
2018-12-12T09:44:52.932Z,1010.93
2018-12-12T09:45:52.952Z,1010.91
2018-12-12T09:46:52.966Z,1010.92
2018-12-12T09:47:52.986Z,1010.92
2018-12-12T09:48:53.005Z,1010.91
2018-12-12T09:49:53.019Z,1010.92
2018-12-12T09:50:53.033Z,1010.89
2018-12-12T09:51:53.054Z,1010.93
2018-12-12T09:52:53.082Z,1010.89
2018-12-12T09:53:53.083Z,1010.95
2018-12-12T09:54:53.100Z,1010.90
2018-12-12T09:55:53.114Z,1010.95
2018-12-12T09:56:53.139Z,1010.98
2018-12-12T09:57:53.147Z,1010.99
2018-12-12T09:58:53.165Z,1011.00
2018-12-12T09:59:53.180Z,1011.00
2018-12-12T10:00:53.199Z,1011.00
2018-12-12T10:01:53.223Z,1011.03
2018-12-12T10:02:53.232Z,1011.04
2018-12-12T10:03:53.249Z,1011.08
2018-12-12T10:04:53.288Z,1011.13
2018-12-12T10:05:53.286Z,1011.09
2018-12-12T10:06:53.300Z,1011.04
2018-12-12T10:07:53.314Z,1010.99
2018-12-12T10:08:53.333Z,1010.97
2018-12-12T10:09:53.351Z,1011.06
2018-12-12T10:10:53.367Z,1011.03
2018-12-12T10:11:53.387Z,1011.14
2018-12-12T10:12:53.436Z,1011.16
2018-12-12T10:13:53.417Z,1011.18
2018-12-12T10:14:53.435Z,1011.27
2018-12-12T10:15:53.452Z,1011.29
2018-12-12T10:16:53.617Z,1011.31
2018-12-12T10:17:53.486Z,1011.38
2018-12-12T10:18:53.681Z,1011.35
2018-12-12T10:19:53.515Z,1011.37
2018-12-12T10:20:53.532Z,1011.38
2018-12-12T10:21:53.551Z,1011.21
2018-12-12T10:22:53.582Z,1011.26
2018-12-12T10:23:53.581Z,1011.24
2018-12-12T10:24:53.599Z,1011.15
2018-12-12T10:25:53.615Z,1011.20
2018-12-12T10:26:53.675Z,1011.21
2018-12-12T10:27:53.656Z,1011.22
2018-12-12T10:28:53.667Z,1011.18
2018-12-12T10:29:53.684Z,1011.24
2018-12-12T10:30:53.706Z,1011.18
2018-12-12T10:31:53.791Z,1011.15
2018-12-12T10:32:53.741Z,1011.11
2018-12-12T10:33:53.764Z,1011.06
2018-12-12T10:34:53.778Z,1011.05
2018-12-12T10:35:53.795Z,1011.02
2018-12-12T10:36:53.803Z,1010.96
2018-12-12T10:37:53.821Z,1011.01
2018-12-12T10:38:53.842Z,1011.07
2018-12-12T10:39:53.858Z,1011.20
2018-12-12T10:40:53.875Z,1011.20
2018-12-12T10:41:53.899Z,1011.20
2018-12-12T10:42:53.907Z,1011.15
2018-12-12T10:43:53.955Z,1011.14
2018-12-12T10:44:53.938Z,1011.14
2018-12-12T10:45:53.954Z,1011.10
2018-12-12T10:46:53.971Z,1011.07
2018-12-12T10:47:53.993Z,1011.04
2018-12-12T10:48:54.006Z,1011.00
2018-12-12T10:49:54.019Z,1011.02
2018-12-12T10:50:54.044Z,1011.11
2018-12-12T10:51:54.062Z,1011.12
2018-12-12T10:52:54.074Z,1011.08
2018-12-12T10:53:54.087Z,1011.09
2018-12-12T10:54:54.149Z,1011.07
2018-12-12T10:55:54.130Z,1011.01
2018-12-12T10:56:54.137Z,1011.02
2018-12-12T10:57:54.153Z,1011.00
2018-12-12T10:58:54.181Z,1010.97
2018-12-12T10:59:54.223Z,1010.98
2018-12-12T11:00:54.203Z,1010.98
2018-12-12T11:01:54.225Z,1010.98
2018-12-12T11:02:54.238Z,1010.93
2018-12-12T11:03:54.255Z,1010.92
2018-12-12T11:04:54.270Z,1010.94
2018-12-12T11:05:54.291Z,1010.97
2018-12-12T11:06:54.305Z,1010.98
2018-12-12T11:07:54.336Z,1011.00
2018-12-12T11:08:54.337Z,1011.00
2018-12-12T11:09:54.360Z,1010.96
2018-12-12T11:10:54.371Z,1010.94
2018-12-12T11:11:54.389Z,1010.93
2018-12-12T11:12:54.415Z,1010.87
2018-12-12T11:13:54.427Z,1010.90
2018-12-12T11:14:54.448Z,1010.92
2018-12-12T11:15:54.461Z,1010.93
2018-12-12T11:16:54.472Z,1010.90
2018-12-12T11:17:54.491Z,1010.91
2018-12-12T11:18:54.526Z,1010.89
2018-12-12T11:19:54.528Z,1010.85
2018-12-12T11:20:54.592Z,1010.85
2018-12-12T11:21:54.562Z,1010.79
2018-12-12T11:22:54.576Z,1010.81
2018-12-12T11:23:54.598Z,1010.75
2018-12-12T11:24:54.608Z,1010.71
2018-12-12T11:25:54.623Z,1010.71
2018-12-12T11:26:54.651Z,1010.67
2018-12-12T11:27:54.658Z,1010.67
2018-12-12T11:28:54.676Z,1010.69
2018-12-12T11:29:54.712Z,1010.68
2018-12-12T11:30:54.710Z,1010.69
2018-12-12T11:31:54.727Z,1010.63
2018-12-12T11:32:54.744Z,1010.64
2018-12-12T11:33:54.760Z,1010.65
2018-12-12T11:34:54.777Z,1010.67
2018-12-12T11:35:54.790Z,1010.68
2018-12-12T11:36:54.811Z,1010.65
2018-12-12T11:37:54.824Z,1010.67
2018-12-12T11:38:54.841Z,1010.63
2018-12-12T11:39:54.857Z,1010.66
2018-12-12T11:40:54.882Z,1010.63
2018-12-12T11:41:54.893Z,1010.66
2018-12-12T11:42:54.915Z,1010.70
2018-12-12T11:43:55.048Z,1010.71
2018-12-12T11:44:54.941Z,1010.69
2018-12-12T11:45:54.960Z,1010.73
2018-12-12T11:46:54.982Z,1010.68
2018-12-12T11:47:54.993Z,1010.74
2018-12-12T11:48:55.014Z,1010.77
2018-12-12T11:49:55.031Z,1010.77
2018-12-12T11:50:55.041Z,1010.76
2018-12-12T11:51:55.057Z,1010.76
2018-12-12T11:52:55.075Z,1010.70
2018-12-12T11:53:55.099Z,1010.71
2018-12-12T11:54:55.111Z,1010.73
2018-12-12T11:55:55.125Z,1010.72
2018-12-12T11:56:55.233Z,1010.75
2018-12-12T11:57:55.156Z,1010.77
2018-12-12T11:58:55.170Z,1010.80
2018-12-12T11:59:55.203Z,1010.78
2018-12-12T12:00:55.209Z,1010.91
2018-12-12T12:01:55.223Z,1010.89
2018-12-12T12:02:55.245Z,1010.83
2018-12-12T12:03:56.875Z,1010.83
2018-12-12T12:04:55.272Z,1010.77
2018-12-12T12:05:55.287Z,1010.77